sensor_id;sensor_type;location;lat;lon;timestamp;temperature;humidity
80695;DHT22;70059;42.702;23.312;2023-05-18T00:00:41;14.90;79.80
80695;DHT22;70059;42.702;23.312;2023-05-18T00:03:15;14.90;79.70
80695;DHT22;70059;42.702;23.312;2023-05-18T00:05:41;14.70;78.50
80695;DHT22;70059;42.702;23.312;2023-05-18T00:08:07;14.60;80.10
80695;DHT22;70059;42.702;23.312;2023-05-18T00:10:32;14.60;80.10
80695;DHT22;70059;42.702;23.312;2023-05-18T00:12:58;14.70;80.00
80695;DHT22;70059;42.702;23.312;2023-05-18T00:15:24;14.70;79.70
80695;DHT22;70059;42.702;23.312;2023-05-18T00:17:49;14.70;79.40
80695;DHT22;70059;42.702;23.312;2023-05-18T00:20:17;14.80;79.10
80695;DHT22;70059;42.702;23.312;2023-05-18T00:22:46;14.80;78.80
80695;DHT22;70059;42.702;23.312;2023-05-18T00:25:12;14.80;78.60
80695;DHT22;70059;42.702;23.312;2023-05-18T00:27:38;14.80;78.10
80695;DHT22;70059;42.702;23.312;2023-05-18T00:30:05;14.80;77.90
80695;DHT22;70059;42.702;23.312;2023-05-18T00:32:34;14.80;77.70
80695;DHT22;70059;42.702;23.312;2023-05-18T00:34:59;14.80;77.60
80695;DHT22;70059;42.702;23.312;2023-05-18T00:37:25;14.80;77.60
80695;DHT22;70059;42.702;23.312;2023-05-18T00:39:51;14.80;77.20
80695;DHT22;70059;42.702;23.312;2023-05-18T00:42:16;14.80;77.50
80695;DHT22;70059;42.702;23.312;2023-05-18T00:44:42;14.80;77.90
80695;DHT22;70059;42.702;23.312;2023-05-18T00:47:08;14.80;78.20
80695;DHT22;70059;42.702;23.312;2023-05-18T00:49:34;14.80;78.10
80695;DHT22;70059;42.702;23.312;2023-05-18T00:52:00;14.80;78.40
80695;DHT22;70059;42.702;23.312;2023-05-18T00:54:26;14.80;78.20
80695;DHT22;70059;42.702;23.312;2023-05-18T00:56:52;14.80;78.20
80695;DHT22;70059;42.702;23.312;2023-05-18T00:59:18;14.80;78.20
80695;DHT22;70059;42.702;23.312;2023-05-18T01:01:44;14.70;78.00
80695;DHT22;70059;42.702;23.312;2023-05-18T01:04:11;14.80;78.20
80695;DHT22;70059;42.702;23.312;2023-05-18T01:06:39;14.70;78.20
80695;DHT22;70059;42.702;23.312;2023-05-18T01:09:08;14.80;78.10
80695;DHT22;70059;42.702;23.312;2023-05-18T01:14:34;14.80;78.30
80695;DHT22;70059;42.702;23.312;2023-05-18T01:17:08;14.80;78.20
80695;DHT22;70059;42.702;23.312;2023-05-18T01:20:02;14.70;78.40
80695;DHT22;70059;42.702;23.312;2023-05-18T01:22:56;14.70;78.50
80695;DHT22;70059;42.702;23.312;2023-05-18T01:27:59;14.60;78.40
80695;DHT22;70059;42.702;23.312;2023-05-18T01:30:32;14.60;78.50
80695;DHT22;70059;42.702;23.312;2023-05-18T01:32:57;14.60;78.70
80695;DHT22;70059;42.702;23.312;2023-05-18T01:35:23;14.70;78.80
80695;DHT22;70059;42.702;23.312;2023-05-18T01:37:49;14.60;78.80
80695;DHT22;70059;42.702;23.312;2023-05-18T01:40:14;14.60;78.30
80695;DHT22;70059;42.702;23.312;2023-05-18T01:42:45;14.70;78.60
80695;DHT22;70059;42.702;23.312;2023-05-18T01:45:20;14.70;78.70
80695;DHT22;70059;42.702;23.312;2023-05-18T01:47:47;14.70;78.50
80695;DHT22;70059;42.702;23.312;2023-05-18T01:50:19;14.70;78.30
80695;DHT22;70059;42.702;23.312;2023-05-18T01:52:52;14.70;78.20
80695;DHT22;70059;42.702;23.312;2023-05-18T01:55:19;14.70;79.80
80695;DHT22;70059;42.702;23.312;2023-05-18T01:57:47;14.70;78.80
80695;DHT22;70059;42.702;23.312;2023-05-18T02:00:15;14.60;78.80
80695;DHT22;70059;42.702;23.312;2023-05-18T02:02:42;14.70;79.00
80695;DHT22;70059;42.702;23.312;2023-05-18T02:05:08;14.70;79.10
80695;DHT22;70059;42.702;23.312;2023-05-18T02:07:37;14.50;77.80
80695;DHT22;70059;42.702;23.312;2023-05-18T02:10:05;14.40;79.10
80695;DHT22;70059;42.702;23.312;2023-05-18T02:12:31;14.30;79.30
80695;DHT22;70059;42.702;23.312;2023-05-18T02:14:56;14.30;79.40
80695;DHT22;70059;42.702;23.312;2023-05-18T02:17:24;14.30;79.40
80695;DHT22;70059;42.702;23.312;2023-05-18T02:19:53;14.40;79.70
80695;DHT22;70059;42.702;23.312;2023-05-18T02:22:18;14.40;79.60
80695;DHT22;70059;42.702;23.312;2023-05-18T02:24:44;14.40;79.50
80695;DHT22;70059;42.702;23.312;2023-05-18T02:27:10;14.40;79.50
80695;DHT22;70059;42.702;23.312;2023-05-18T02:29:38;14.40;79.40
80695;DHT22;70059;42.702;23.312;2023-05-18T02:32:10;14.40;79.50
80695;DHT22;70059;42.702;23.312;2023-05-18T02:34:38;14.50;79.70
80695;DHT22;70059;42.702;23.312;2023-05-18T02:37:06;14.40;79.70
80695;DHT22;70059;42.702;23.312;2023-05-18T02:39:32;14.40;79.60
80695;DHT22;70059;42.702;23.312;2023-05-18T02:41:58;14.50;79.50
80695;DHT22;70059;42.702;23.312;2023-05-18T02:44:24;14.50;79.50
80695;DHT22;70059;42.702;23.312;2023-05-18T02:46:50;14.50;79.70
80695;DHT22;70059;42.702;23.312;2023-05-18T02:49:16;14.40;79.50
80695;DHT22;70059;42.702;23.312;2023-05-18T02:51:41;14.40;79.00
80695;DHT22;70059;42.702;23.312;2023-05-18T02:54:07;14.30;78.80
80695;DHT22;70059;42.702;23.312;2023-05-18T02:56:33;14.40;79.20
80695;DHT22;70059;42.702;23.312;2023-05-18T02:58:58;14.40;79.40
80695;DHT22;70059;42.702;23.312;2023-05-18T03:01:25;14.40;79.40
80695;DHT22;70059;42.702;23.312;2023-05-18T03:03:55;14.40;79.20
80695;DHT22;70059;42.702;23.312;2023-05-18T03:06:24;14.40;79.10
80695;DHT22;70059;42.702;23.312;2023-05-18T03:08:51;14.40;79.30
80695;DHT22;70059;42.702;23.312;2023-05-18T03:11:19;14.40;79.20
80695;DHT22;70059;42.702;23.312;2023-05-18T03:13:46;14.40;79.00
80695;DHT22;70059;42.702;23.312;2023-05-18T03:16:12;14.30;79.10
80695;DHT22;70059;42.702;23.312;2023-05-18T03:18:38;14.20;79.10
80695;DHT22;70059;42.702;23.312;2023-05-18T03:21:04;14.10;79.80
80695;DHT22;70059;42.702;23.312;2023-05-18T03:23:30;14.20;80.30
80695;DHT22;70059;42.702;23.312;2023-05-18T03:25:56;14.30;80.50
80695;DHT22;70059;42.702;23.312;2023-05-18T03:28:22;14.30;80.20
80695;DHT22;70059;42.702;23.312;2023-05-18T03:30:47;14.40;80.00
80695;DHT22;70059;42.702;23.312;2023-05-18T03:33:13;14.40;79.60
80695;DHT22;70059;42.702;23.312;2023-05-18T03:35:39;14.50;79.60
80695;DHT22;70059;42.702;23.312;2023-05-18T03:38:05;14.50;79.40
80695;DHT22;70059;42.702;23.312;2023-05-18T03:40:31;14.60;79.50
80695;DHT22;70059;42.702;23.312;2023-05-18T03:42:57;14.60;79.30
80695;DHT22;70059;42.702;23.312;2023-05-18T03:45:23;14.60;79.20
80695;DHT22;70059;42.702;23.312;2023-05-18T03:47:49;14.70;79.20
80695;DHT22;70059;42.702;23.312;2023-05-18T03:50:14;14.70;78.90
80695;DHT22;70059;42.702;23.312;2023-05-18T03:52:42;14.70;78.80
80695;DHT22;70059;42.702;23.312;2023-05-18T03:55:09;14.80;78.90
80695;DHT22;70059;42.702;23.312;2023-05-18T03:57:34;14.70;78.70
80695;DHT22;70059;42.702;23.312;2023-05-18T04:00:01;14.80;78.40
80695;DHT22;70059;42.702;23.312;2023-05-18T04:02:32;14.80;78.20
80695;DHT22;70059;42.702;23.312;2023-05-18T04:04:57;14.80;77.90
80695;DHT22;70059;42.702;23.312;2023-05-18T04:07:23;14.90;77.70
80695;DHT22;70059;42.702;23.312;2023-05-18T04:09:50;14.90;77.60
80695;DHT22;70059;42.702;23.312;2023-05-18T04:12:17;14.90;77.60
80695;DHT22;70059;42.702;23.312;2023-05-18T04:14:42;15.00;77.20
80695;DHT22;70059;42.702;23.312;2023-05-18T04:17:17;15.00;77.10
80695;DHT22;70059;42.702;23.312;2023-05-18T04:19:52;15.00;77.00
80695;DHT22;70059;42.702;23.312;2023-05-18T04:22:18;15.10;77.10
80695;DHT22;70059;42.702;23.312;2023-05-18T04:24:44;15.10;77.30
80695;DHT22;70059;42.702;23.312;2023-05-18T04:27:12;15.10;77.00
80695;DHT22;70059;42.702;23.312;2023-05-18T04:29:48;15.10;77.00
80695;DHT22;70059;42.702;23.312;2023-05-18T04:32:14;15.20;76.90
80695;DHT22;70059;42.702;23.312;2023-05-18T04:34:45;15.30;76.80
80695;DHT22;70059;42.702;23.312;2023-05-18T04:37:24;15.30;76.70
80695;DHT22;70059;42.702;23.312;2023-05-18T04:39:53;15.40;76.50
80695;DHT22;70059;42.702;23.312;2023-05-18T04:42:19;15.40;76.20
80695;DHT22;70059;42.702;23.312;2023-05-18T04:44:45;15.50;75.90
80695;DHT22;70059;42.702;23.312;2023-05-18T04:47:13;15.60;75.90
80695;DHT22;70059;42.702;23.312;2023-05-18T04:49:39;15.60;75.80
80695;DHT22;70059;42.702;23.312;2023-05-18T04:52:05;15.60;75.50
80695;DHT22;70059;42.702;23.312;2023-05-18T04:54:34;15.70;75.20
80695;DHT22;70059;42.702;23.312;2023-05-18T04:57:02;15.80;75.00
80695;DHT22;70059;42.702;23.312;2023-05-18T04:59:31;15.70;74.30
80695;DHT22;70059;42.702;23.312;2023-05-18T05:02:06;15.80;74.40
80695;DHT22;70059;42.702;23.312;2023-05-18T05:04:35;15.70;74.10
80695;DHT22;70059;42.702;23.312;2023-05-18T05:07:07;15.70;74.40
80695;DHT22;70059;42.702;23.312;2023-05-18T05:09:33;15.70;75.80
80695;DHT22;70059;42.702;23.312;2023-05-18T05:12:01;15.70;74.60
80695;DHT22;70059;42.702;23.312;2023-05-18T05:17:48;15.70;73.70
80695;DHT22;70059;42.702;23.312;2023-05-18T05:20:30;15.70;74.10
80695;DHT22;70059;42.702;23.312;2023-05-18T05:23:08;15.70;73.90
80695;DHT22;70059;42.702;23.312;2023-05-18T05:25:40;15.60;74.10
80695;DHT22;70059;42.702;23.312;2023-05-18T05:28:12;15.60;74.50
80695;DHT22;70059;42.702;23.312;2023-05-18T05:30:38;15.60;74.70
80695;DHT22;70059;42.702;23.312;2023-05-18T05:33:04;15.60;76.10
80695;DHT22;70059;42.702;23.312;2023-05-18T05:35:33;15.50;74.60
80695;DHT22;70059;42.702;23.312;2023-05-18T05:38:00;15.60;76.10
80695;DHT22;70059;42.702;23.312;2023-05-18T05:40:26;15.50;74.90
80695;DHT22;70059;42.702;23.312;2023-05-18T05:42:52;15.50;75.00
80695;DHT22;70059;42.702;23.312;2023-05-18T05:45:20;15.50;75.10
80695;DHT22;70059;42.702;23.312;2023-05-18T05:50:11;15.50;75.20
80695;DHT22;70059;42.702;23.312;2023-05-18T05:52:38;15.50;75.10
80695;DHT22;70059;42.702;23.312;2023-05-18T05:55:07;15.50;75.10
80695;DHT22;70059;42.702;23.312;2023-05-18T05:57:33;15.50;75.30
80695;DHT22;70059;42.702;23.312;2023-05-18T05:59:59;15.50;75.60
80695;DHT22;70059;42.702;23.312;2023-05-18T06:02:27;15.50;75.50
80695;DHT22;70059;42.702;23.312;2023-05-18T06:05:31;15.50;75.30
80695;DHT22;70059;42.702;23.312;2023-05-18T06:08:03;15.60;75.20
80695;DHT22;70059;42.702;23.312;2023-05-18T06:10:42;15.50;75.20
80695;DHT22;70059;42.702;23.312;2023-05-18T06:13:12;15.60;74.90
80695;DHT22;70059;42.702;23.312;2023-05-18T06:15:38;15.60;74.90
80695;DHT22;70059;42.702;23.312;2023-05-18T06:18:04;15.60;75.10
80695;DHT22;70059;42.702;23.312;2023-05-18T06:20:32;15.70;74.80
80695;DHT22;70059;42.702;23.312;2023-05-18T06:23:04;15.70;74.50
80695;DHT22;70059;42.702;23.312;2023-05-18T06:25:33;15.80;74.10
80695;DHT22;70059;42.702;23.312;2023-05-18T06:28:02;15.90;73.70
80695;DHT22;70059;42.702;23.312;2023-05-18T06:30:29;16.00;73.50
80695;DHT22;70059;42.702;23.312;2023-05-18T06:32:55;16.10;73.20
80695;DHT22;70059;42.702;23.312;2023-05-18T06:35:21;16.10;73.00
80695;DHT22;70059;42.702;23.312;2023-05-18T06:37:49;16.20;72.70
80695;DHT22;70059;42.702;23.312;2023-05-18T06:40:15;16.20;72.40
80695;DHT22;70059;42.702;23.312;2023-05-18T06:42:42;16.40;72.40
80695;DHT22;70059;42.702;23.312;2023-05-18T06:45:16;16.50;72.00
80695;DHT22;70059;42.702;23.312;2023-05-18T06:47:44;16.60;71.40
80695;DHT22;70059;42.702;23.312;2023-05-18T06:50:11;16.70;71.00
80695;DHT22;70059;42.702;23.312;2023-05-18T06:52:44;16.80;70.50
80695;DHT22;70059;42.702;23.312;2023-05-18T06:55:13;17.00;69.80
80695;DHT22;70059;42.702;23.312;2023-05-18T06:57:39;17.10;69.20
80695;DHT22;70059;42.702;23.312;2023-05-18T07:00:12;17.30;68.90
80695;DHT22;70059;42.702;23.312;2023-05-18T07:02:45;17.40;68.20
80695;DHT22;70059;42.702;23.312;2023-05-18T07:05:15;17.60;66.00
80695;DHT22;70059;42.702;23.312;2023-05-18T07:07:46;17.70;65.40
80695;DHT22;70059;42.702;23.312;2023-05-18T07:10:40;17.60;66.60
80695;DHT22;70059;42.702;23.312;2023-05-18T07:13:09;17.60;65.40
80695;DHT22;70059;42.702;23.312;2023-05-18T07:15:35;17.40;64.90
80695;DHT22;70059;42.702;23.312;2023-05-18T07:18:12;17.30;65.30
80695;DHT22;70059;42.702;23.312;2023-05-18T07:20:40;17.20;65.20
80695;DHT22;70059;42.702;23.312;2023-05-18T07:23:09;17.10;65.90
80695;DHT22;70059;42.702;23.312;2023-05-18T07:25:35;17.00;66.10
80695;DHT22;70059;42.702;23.312;2023-05-18T07:28:01;16.90;66.30
80695;DHT22;70059;42.702;23.312;2023-05-18T07:30:27;16.80;66.70
80695;DHT22;70059;42.702;23.312;2023-05-18T07:32:57;16.80;66.90
80695;DHT22;70059;42.702;23.312;2023-05-18T07:35:23;16.80;67.60
80695;DHT22;70059;42.702;23.312;2023-05-18T07:37:56;16.70;68.20
80695;DHT22;70059;42.702;23.312;2023-05-18T07:40:22;16.70;68.10
80695;DHT22;70059;42.702;23.312;2023-05-18T07:42:48;16.60;67.30
80695;DHT22;70059;42.702;23.312;2023-05-18T07:45:14;16.60;66.50
80695;DHT22;70059;42.702;23.312;2023-05-18T07:47:40;16.60;65.30
80695;DHT22;70059;42.702;23.312;2023-05-18T07:50:06;16.60;65.30
80695;DHT22;70059;42.702;23.312;2023-05-18T07:52:32;16.60;65.20
80695;DHT22;70059;42.702;23.312;2023-05-18T07:54:58;16.50;65.10
80695;DHT22;70059;42.702;23.312;2023-05-18T07:57:25;16.40;64.40
80695;DHT22;70059;42.702;23.312;2023-05-18T07:59:53;16.40;64.80
80695;DHT22;70059;42.702;23.312;2023-05-18T08:02:21;16.40;64.90
80695;DHT22;70059;42.702;23.312;2023-05-18T08:04:52;16.50;65.30
80695;DHT22;70059;42.702;23.312;2023-05-18T08:07:20;16.50;66.00
80695;DHT22;70059;42.702;23.312;2023-05-18T08:09:46;16.40;65.00
80695;DHT22;70059;42.702;23.312;2023-05-18T08:12:11;16.40;65.80
80695;DHT22;70059;42.702;23.312;2023-05-18T08:14:37;16.50;66.00
80695;DHT22;70059;42.702;23.312;2023-05-18T08:17:06;16.50;65.90
80695;DHT22;70059;42.702;23.312;2023-05-18T08:19:39;16.40;65.60
80695;DHT22;70059;42.702;23.312;2023-05-18T08:22:04;16.40;65.20
80695;DHT22;70059;42.702;23.312;2023-05-18T08:24:30;16.30;65.60
80695;DHT22;70059;42.702;23.312;2023-05-18T08:26:57;16.40;65.40
80695;DHT22;70059;42.702;23.312;2023-05-18T08:29:23;16.30;64.80
80695;DHT22;70059;42.702;23.312;2023-05-18T08:31:50;16.30;64.60
80695;DHT22;70059;42.702;23.312;2023-05-18T08:34:22;16.30;64.90
80695;DHT22;70059;42.702;23.312;2023-05-18T08:36:51;16.20;64.90
80695;DHT22;70059;42.702;23.312;2023-05-18T08:39:18;16.20;64.70
80695;DHT22;70059;42.702;23.312;2023-05-18T08:47:32;16.10;65.30
80695;DHT22;70059;42.702;23.312;2023-05-18T08:50:00;16.00;62.20
80695;DHT22;70059;42.702;23.312;2023-05-18T08:52:36;16.00;64.50
80695;DHT22;70059;42.702;23.312;2023-05-18T08:55:07;16.00;63.40
80695;DHT22;70059;42.702;23.312;2023-05-18T08:57:34;16.00;63.60
80695;DHT22;70059;42.702;23.312;2023-05-18T09:00:02;16.00;62.00
80695;DHT22;70059;42.702;23.312;2023-05-18T09:02:31;16.00;62.50
80695;DHT22;70059;42.702;23.312;2023-05-18T09:05:00;16.00;63.30
80695;DHT22;70059;42.702;23.312;2023-05-18T09:07:27;16.10;63.20
80695;DHT22;70059;42.702;23.312;2023-05-18T09:09:54;16.10;63.30
80695;DHT22;70059;42.702;23.312;2023-05-18T09:12:24;16.20;63.10
80695;DHT22;70059;42.702;23.312;2023-05-18T09:14:52;16.30;62.30
80695;DHT22;70059;42.702;23.312;2023-05-18T09:17:18;16.30;62.20
80695;DHT22;70059;42.702;23.312;2023-05-18T09:19:45;16.30;61.10
80695;DHT22;70059;42.702;23.312;2023-05-18T09:22:11;16.40;60.80
80695;DHT22;70059;42.702;23.312;2023-05-18T09:24:37;16.00;58.50
80695;DHT22;70059;42.702;23.312;2023-05-18T09:27:04;15.90;58.10
80695;DHT22;70059;42.702;23.312;2023-05-18T09:29:32;15.30;61.80
80695;DHT22;70059;42.702;23.312;2023-05-18T09:32:39;15.20;64.40
80695;DHT22;70059;42.702;23.312;2023-05-18T09:35:14;15.60;64.60
80695;DHT22;70059;42.702;23.312;2023-05-18T09:37:41;15.60;63.80
80695;DHT22;70059;42.702;23.312;2023-05-18T09:40:08;15.40;63.30
80695;DHT22;70059;42.702;23.312;2023-05-18T09:42:39;15.40;63.40
80695;DHT22;70059;42.702;23.312;2023-05-18T09:45:19;15.70;62.70
80695;DHT22;70059;42.702;23.312;2023-05-18T09:47:49;16.00;62.90
80695;DHT22;70059;42.702;23.312;2023-05-18T09:50:22;16.50;59.10
80695;DHT22;70059;42.702;23.312;2023-05-18T09:52:52;16.80;58.10
80695;DHT22;70059;42.702;23.312;2023-05-18T09:55:21;17.10;59.80
80695;DHT22;70059;42.702;23.312;2023-05-18T09:57:51;17.10;57.10
80695;DHT22;70059;42.702;23.312;2023-05-18T10:00:23;16.90;57.80
80695;DHT22;70059;42.702;23.312;2023-05-18T10:02:55;16.40;60.80
80695;DHT22;70059;42.702;23.312;2023-05-18T10:05:41;16.10;61.40
80695;DHT22;70059;42.702;23.312;2023-05-18T10:08:11;15.80;62.90
80695;DHT22;70059;42.702;23.312;2023-05-18T10:10:54;15.70;62.50
80695;DHT22;70059;42.702;23.312;2023-05-18T10:13:29;15.90;62.30
80695;DHT22;70059;42.702;23.312;2023-05-18T10:16:31;15.20;64.70
80695;DHT22;70059;42.702;23.312;2023-05-18T10:19:05;14.90;66.10
80695;DHT22;70059;42.702;23.312;2023-05-18T10:21:45;14.70;67.20
80695;DHT22;70059;42.702;23.312;2023-05-18T10:24:12;14.60;66.70
80695;DHT22;70059;42.702;23.312;2023-05-18T10:26:43;14.60;67.70
80695;DHT22;70059;42.702;23.312;2023-05-18T10:32:44;14.20;68.90
80695;DHT22;70059;42.702;23.312;2023-05-18T10:35:58;14.00;69.70
80695;DHT22;70059;42.702;23.312;2023-05-18T10:38:21;13.90;70.20
80695;DHT22;70059;42.702;23.312;2023-05-18T10:40:50;14.00;69.90
80695;DHT22;70059;42.702;23.312;2023-05-18T10:43:21;14.00;69.20
80695;DHT22;70059;42.702;23.312;2023-05-18T10:46:00;13.90;69.40
80695;DHT22;70059;42.702;23.312;2023-05-18T10:48:29;14.00;70.10
80695;DHT22;70059;42.702;23.312;2023-05-18T10:50:57;14.00;68.80
80695;DHT22;70059;42.702;23.312;2023-05-18T10:53:25;14.30;68.70
80695;DHT22;70059;42.702;23.312;2023-05-18T10:55:55;14.50;67.90
80695;DHT22;70059;42.702;23.312;2023-05-18T10:58:25;14.80;66.80
80695;DHT22;70059;42.702;23.312;2023-05-18T11:01:11;15.00;66.40
80695;DHT22;70059;42.702;23.312;2023-05-18T11:04:16;14.90;64.80
80695;DHT22;70059;42.702;23.312;2023-05-18T11:07:22;14.50;65.50
80695;DHT22;70059;42.702;23.312;2023-05-18T11:13:21;14.30;67.90
80695;DHT22;70059;42.702;23.312;2023-05-18T11:18:40;14.30;69.40
80695;DHT22;70059;42.702;23.312;2023-05-18T11:21:32;14.10;69.90
80695;DHT22;70059;42.702;23.312;2023-05-18T11:24:32;14.00;69.70
80695;DHT22;70059;42.702;23.312;2023-05-18T11:27:01;14.00;70.40
80695;DHT22;70059;42.702;23.312;2023-05-18T11:29:47;14.10;70.20
80695;DHT22;70059;42.702;23.312;2023-05-18T11:38:19;14.70;68.20
80695;DHT22;70059;42.702;23.312;2023-05-18T11:41:03;14.50;69.70
80695;DHT22;70059;42.702;23.312;2023-05-18T11:50:15;14.10;72.90
80695;DHT22;70059;42.702;23.312;2023-05-18T11:54:06;14.00;72.30
80695;DHT22;70059;42.702;23.312;2023-05-18T11:56:39;13.90;72.40
80695;DHT22;70059;42.702;23.312;2023-05-18T11:59:12;13.70;71.10
80695;DHT22;70059;42.702;23.312;2023-05-18T12:01:42;13.70;72.20
80695;DHT22;70059;42.702;23.312;2023-05-18T12:04:11;14.00;71.90
80695;DHT22;70059;42.702;23.312;2023-05-18T12:06:40;14.30;70.50
80695;DHT22;70059;42.702;23.312;2023-05-18T12:09:06;14.00;71.30
80695;DHT22;70059;42.702;23.312;2023-05-18T12:11:34;14.00;72.00
80695;DHT22;70059;42.702;23.312;2023-05-18T12:14:05;14.00;70.80
80695;DHT22;70059;42.702;23.312;2023-05-18T12:16:32;14.10;69.70
80695;DHT22;70059;42.702;23.312;2023-05-18T12:19:01;14.20;69.90
80695;DHT22;70059;42.702;23.312;2023-05-18T12:21:35;14.30;68.70
80695;DHT22;70059;42.702;23.312;2023-05-18T12:24:07;14.50;70.10
80695;DHT22;70059;42.702;23.312;2023-05-18T12:26:34;14.40;70.40
80695;DHT22;70059;42.702;23.312;2023-05-18T12:29:00;14.50;71.40
80695;DHT22;70059;42.702;23.312;2023-05-18T12:31:27;14.60;71.40
80695;DHT22;70059;42.702;23.312;2023-05-18T12:33:56;14.60;70.50
80695;DHT22;70059;42.702;23.312;2023-05-18T12:41:42;14.70;69.10
80695;DHT22;70059;42.702;23.312;2023-05-18T12:44:08;15.00;69.00
80695;DHT22;70059;42.702;23.312;2023-05-18T12:46:35;15.30;69.00
80695;DHT22;70059;42.702;23.312;2023-05-18T12:49:01;15.60;69.10
80695;DHT22;70059;42.702;23.312;2023-05-18T12:51:35;15.80;69.40
80695;DHT22;70059;42.702;23.312;2023-05-18T12:54:04;16.20;67.70
80695;DHT22;70059;42.702;23.312;2023-05-18T12:56:52;16.40;66.00
80695;DHT22;70059;42.702;23.312;2023-05-18T12:59:46;16.70;65.20
80695;DHT22;70059;42.702;23.312;2023-05-18T13:02:33;16.80;64.10
80695;DHT22;70059;42.702;23.312;2023-05-18T13:05:08;17.00;63.50
80695;DHT22;70059;42.702;23.312;2023-05-18T13:07:48;17.00;63.40
80695;DHT22;70059;42.702;23.312;2023-05-18T13:10:17;17.10;62.80
80695;DHT22;70059;42.702;23.312;2023-05-18T13:12:55;17.20;62.80
80695;DHT22;70059;42.702;23.312;2023-05-18T13:15:26;17.30;61.60
80695;DHT22;70059;42.702;23.312;2023-05-18T13:18:17;17.20;61.60
80695;DHT22;70059;42.702;23.312;2023-05-18T13:20:50;17.10;61.30
80695;DHT22;70059;42.702;23.312;2023-05-18T13:23:21;17.00;61.70
80695;DHT22;70059;42.702;23.312;2023-05-18T13:25:48;17.00;62.20
80695;DHT22;70059;42.702;23.312;2023-05-18T13:28:16;17.10;61.50
80695;DHT22;70059;42.702;23.312;2023-05-18T13:30:43;17.20;60.90
80695;DHT22;70059;42.702;23.312;2023-05-18T13:33:12;17.40;60.90
80695;DHT22;70059;42.702;23.312;2023-05-18T13:35:39;17.70;60.00
80695;DHT22;70059;42.702;23.312;2023-05-18T13:38:11;17.80;59.60
80695;DHT22;70059;42.702;23.312;2023-05-18T13:40:38;17.90;58.90
80695;DHT22;70059;42.702;23.312;2023-05-18T13:43:04;18.10;58.90
80695;DHT22;70059;42.702;23.312;2023-05-18T13:45:36;18.20;58.70
80695;DHT22;70059;42.702;23.312;2023-05-18T13:48:03;18.30;57.10
80695;DHT22;70059;42.702;23.312;2023-05-18T13:50:33;18.30;56.60
80695;DHT22;70059;42.702;23.312;2023-05-18T13:53:00;18.30;55.90
80695;DHT22;70059;42.702;23.312;2023-05-18T14:06:41;18.40;57.10
80695;DHT22;70059;42.702;23.312;2023-05-18T14:09:08;18.40;58.20
80695;DHT22;70059;42.702;23.312;2023-05-18T14:11:34;18.40;57.00
80695;DHT22;70059;42.702;23.312;2023-05-18T14:14:03;18.40;56.50
80695;DHT22;70059;42.702;23.312;2023-05-18T14:16:31;18.40;56.30
80695;DHT22;70059;42.702;23.312;2023-05-18T14:18:57;18.30;56.10
80695;DHT22;70059;42.702;23.312;2023-05-18T14:21:25;18.10;56.40
80695;DHT22;70059;42.702;23.312;2023-05-18T14:23:51;18.00;56.70
80695;DHT22;70059;42.702;23.312;2023-05-18T14:26:19;17.90;57.60
80695;DHT22;70059;42.702;23.312;2023-05-18T14:28:44;17.80;58.00
80695;DHT22;70059;42.702;23.312;2023-05-18T14:31:11;17.70;58.00
80695;DHT22;70059;42.702;23.312;2023-05-18T14:33:38;17.70;58.40
80695;DHT22;70059;42.702;23.312;2023-05-18T14:36:04;17.60;58.00
80695;DHT22;70059;42.702;23.312;2023-05-18T14:38:31;17.50;58.10
80695;DHT22;70059;42.702;23.312;2023-05-18T14:40:58;17.50;58.70
80695;DHT22;70059;42.702;23.312;2023-05-18T14:43:23;17.50;58.80
80695;DHT22;70059;42.702;23.312;2023-05-18T14:45:51;17.50;59.20
80695;DHT22;70059;42.702;23.312;2023-05-18T14:48:23;17.50;59.30
80695;DHT22;70059;42.702;23.312;2023-05-18T14:50:48;17.50;59.50
80695;DHT22;70059;42.702;23.312;2023-05-18T14:53:15;17.50;59.90
80695;DHT22;70059;42.702;23.312;2023-05-18T14:55:41;17.30;58.00
80695;DHT22;70059;42.702;23.312;2023-05-18T14:58:07;17.30;58.30
80695;DHT22;70059;42.702;23.312;2023-05-18T15:00:36;17.20;58.10
80695;DHT22;70059;42.702;23.312;2023-05-18T15:03:02;17.10;58.40
80695;DHT22;70059;42.702;23.312;2023-05-18T15:05:28;17.10;58.70
80695;DHT22;70059;42.702;23.312;2023-05-18T15:07:53;17.00;58.60
80695;DHT22;70059;42.702;23.312;2023-05-18T15:10:19;16.70;58.20
80695;DHT22;70059;42.702;23.312;2023-05-18T15:12:48;16.50;60.60
80695;DHT22;70059;42.702;23.312;2023-05-18T15:15:14;16.70;60.90
80695;DHT22;70059;42.702;23.312;2023-05-18T15:17:39;17.00;60.80
80695;DHT22;70059;42.702;23.312;2023-05-18T15:20:06;17.00;60.00
80695;DHT22;70059;42.702;23.312;2023-05-18T15:22:32;16.80;59.60
80695;DHT22;70059;42.702;23.312;2023-05-18T15:25:06;16.80;59.40
80695;DHT22;70059;42.702;23.312;2023-05-18T15:27:37;16.40;60.40
80695;DHT22;70059;42.702;23.312;2023-05-18T15:30:04;16.30;61.40
80695;DHT22;70059;42.702;23.312;2023-05-18T15:32:37;15.80;62.80
80695;DHT22;70059;42.702;23.312;2023-05-18T15:35:04;15.40;63.50
80695;DHT22;70059;42.702;23.312;2023-05-18T15:37:30;15.40;64.40
80695;DHT22;70059;42.702;23.312;2023-05-18T15:39:56;15.50;64.80
80695;DHT22;70059;42.702;23.312;2023-05-18T15:42:21;15.60;64.40
80695;DHT22;70059;42.702;23.312;2023-05-18T15:44:48;15.70;64.60
80695;DHT22;70059;42.702;23.312;2023-05-18T15:47:14;15.70;64.00
80695;DHT22;70059;42.702;23.312;2023-05-18T15:49:39;15.80;64.40
80695;DHT22;70059;42.702;23.312;2023-05-18T15:52:05;15.90;65.10
80695;DHT22;70059;42.702;23.312;2023-05-18T15:54:31;16.10;65.10
80695;DHT22;70059;42.702;23.312;2023-05-18T15:56:56;16.20;64.90
80695;DHT22;70059;42.702;23.312;2023-05-18T15:59:22;16.30;64.60
80695;DHT22;70059;42.702;23.312;2023-05-18T16:01:48;16.40;64.20
80695;DHT22;70059;42.702;23.312;2023-05-18T16:04:14;16.50;64.10
80695;DHT22;70059;42.702;23.312;2023-05-18T16:06:40;16.50;63.00
80695;DHT22;70059;42.702;23.312;2023-05-18T16:09:15;16.30;62.30
80695;DHT22;70059;42.702;23.312;2023-05-18T16:11:40;16.40;62.40
80695;DHT22;70059;42.702;23.312;2023-05-18T16:14:06;16.40;62.50
80695;DHT22;70059;42.702;23.312;2023-05-18T16:16:32;16.40;63.30
80695;DHT22;70059;42.702;23.312;2023-05-18T16:19:00;16.20;60.70
80695;DHT22;70059;42.702;23.312;2023-05-18T16:21:27;16.10;62.00
80695;DHT22;70059;42.702;23.312;2023-05-18T16:23:53;16.10;62.90
80695;DHT22;70059;42.702;23.312;2023-05-18T16:26:21;16.20;62.90